createdAt,value
2018-02-12T00:01:32.428Z,38.43
2018-02-12T00:03:59.246Z,27.47
2018-02-12T00:06:26.910Z,28.37
2018-02-12T00:08:53.693Z,31.23
2018-02-12T00:11:21.110Z,31.50
2018-02-12T00:13:47.865Z,30.63
2018-02-12T00:16:14.680Z,27.50
2018-02-12T00:18:41.434Z,30.77
2018-02-12T00:21:08.193Z,34.60
2018-02-12T00:23:34.933Z,37.07
2018-02-12T00:26:01.722Z,34.07
2018-02-12T00:28:28.501Z,34.13
2018-02-12T00:30:55.246Z,33.20
2018-02-12T00:33:24.202Z,27.90
2018-02-12T00:35:50.943Z,30.03
2018-02-12T00:38:18.505Z,28.80
2018-02-12T00:40:45.251Z,31.00
2018-02-12T00:43:12.039Z,25.10
2018-02-12T00:45:38.805Z,28.93
2018-02-12T00:48:05.577Z,33.67
2018-02-12T00:50:32.317Z,29.27
2018-02-12T00:52:59.191Z,35.60
2018-02-12T00:55:25.962Z,30.33
2018-02-12T00:57:52.724Z,36.03
2018-02-12T01:00:19.469Z,34.50
2018-02-12T01:02:46.221Z,29.97
2018-02-12T01:05:12.997Z,31.03
2018-02-12T01:07:39.738Z,32.00
2018-02-12T01:10:06.509Z,39.13
2018-02-12T01:12:33.281Z,40.27
2018-02-12T01:15:00.038Z,36.07
2018-02-12T01:17:26.793Z,39.40
2018-02-12T01:19:53.567Z,39.40
2018-02-12T01:22:20.337Z,30.93
2018-02-12T01:24:47.256Z,36.67
2018-02-12T01:27:13.997Z,35.03
2018-02-12T01:29:40.771Z,33.40
2018-02-12T01:32:07.557Z,35.70
2018-02-12T01:34:34.291Z,35.47
2018-02-12T01:37:01.065Z,35.50
2018-02-12T01:39:27.941Z,33.33
2018-02-12T01:41:54.676Z,34.73
2018-02-12T01:44:21.417Z,36.33
2018-02-12T01:46:48.178Z,33.17
2018-02-12T01:49:15.018Z,36.77
2018-02-12T01:51:41.913Z,40.10
2018-02-12T01:54:08.666Z,34.93
2018-02-12T01:56:35.438Z,33.57
2018-02-12T01:59:02.269Z,34.80
2018-02-12T02:01:29.018Z,35.53
2018-02-12T02:03:55.830Z,37.37
2018-02-12T02:06:22.604Z,35.87
2018-02-12T02:08:49.385Z,31.40
2018-02-12T02:11:16.146Z,34.30
2018-02-12T02:13:42.922Z,36.37
2018-02-12T02:16:09.701Z,31.60
2018-02-12T02:18:36.589Z,34.03
2018-02-12T02:21:03.507Z,34.37
2018-02-12T02:23:30.306Z,29.13
2018-02-12T02:25:57.057Z,32.47
2018-02-12T02:28:23.837Z,29.60
2018-02-12T02:30:50.613Z,35.40
2018-02-12T02:33:17.386Z,32.47
2018-02-12T02:35:49.086Z,34.67
2018-02-12T02:38:15.866Z,41.07
2018-02-12T02:40:42.588Z,36.07
2018-02-12T02:43:09.329Z,30.47
2018-02-12T02:45:36.067Z,31.00
2018-02-12T02:48:02.813Z,29.60
2018-02-12T02:50:29.583Z,29.67
2018-02-12T02:52:56.350Z,30.00
2018-02-12T02:55:23.133Z,28.07
2018-02-12T02:57:49.906Z,22.10
2018-02-12T03:00:16.658Z,27.00
2018-02-12T03:02:43.401Z,28.50
2018-02-12T03:05:10.157Z,28.33
2018-02-12T03:07:36.897Z,23.90
2018-02-12T03:10:03.672Z,20.33
2018-02-12T03:12:30.449Z,14.17
2018-02-12T03:14:57.197Z,13.03
2018-02-12T03:17:23.957Z,12.03
2018-02-12T03:19:50.721Z,10.47
2018-02-12T03:22:17.797Z,9.13
2018-02-12T03:24:44.785Z,11.53
2018-02-12T03:27:11.537Z,13.67
2018-02-12T03:29:38.396Z,11.47
2018-02-12T03:32:05.161Z,13.10
2018-02-12T03:34:31.945Z,14.63
2018-02-12T03:36:59.302Z,11.60
2018-02-12T03:39:26.070Z,12.57
2018-02-12T03:41:52.981Z,13.20
2018-02-12T03:44:19.862Z,12.10
2018-02-12T03:46:46.837Z,13.13
2018-02-12T03:49:13.881Z,15.27
2018-02-12T03:51:40.781Z,14.33
2018-02-12T03:54:07.742Z,17.87
2018-02-12T03:56:34.698Z,18.97
2018-02-12T03:59:01.706Z,15.20
2018-02-12T04:01:28.575Z,17.77
2018-02-12T04:03:55.405Z,13.60
2018-02-12T04:06:22.237Z,10.37
2018-02-12T04:08:49.040Z,13.07
2018-02-12T04:11:15.925Z,11.63
2018-02-12T04:13:42.914Z,14.40
2018-02-12T04:16:09.783Z,14.17
2018-02-12T04:18:36.717Z,14.53
2018-02-12T04:21:04.161Z,14.37
2018-02-12T04:23:31.173Z,12.07
2018-02-12T04:25:58.146Z,14.63
2018-02-12T04:28:25.099Z,12.77
2018-02-12T04:30:52.112Z,12.30
2018-02-12T04:33:19.136Z,14.50
2018-02-12T04:35:46.033Z,11.80
2018-02-12T04:38:12.950Z,11.67
2018-02-12T04:40:39.839Z,14.03
2018-02-12T04:43:06.856Z,12.13
2018-02-12T04:45:33.678Z,14.37
2018-02-12T04:48:00.502Z,10.93
2018-02-12T04:50:27.488Z,13.13
2018-02-12T04:52:54.540Z,11.83
2018-02-12T04:55:21.596Z,9.43
2018-02-12T04:57:48.587Z,11.80
2018-02-12T05:00:15.454Z,11.73
2018-02-12T05:02:42.285Z,13.77
2018-02-12T05:05:09.231Z,12.47
2018-02-12T05:07:36.199Z,12.77
2018-02-12T05:10:03.134Z,13.07
2018-02-12T05:12:30.033Z,13.40
2018-02-12T05:14:56.896Z,13.73
2018-02-12T05:17:23.720Z,13.83
2018-02-12T05:19:50.560Z,11.60
2018-02-12T05:22:17.368Z,11.90
2018-02-12T05:24:44.131Z,11.00
2018-02-12T05:27:10.913Z,13.50
2018-02-12T05:29:37.871Z,12.33
2018-02-12T05:32:04.615Z,13.60
2018-02-12T05:34:31.371Z,11.97
2018-02-12T05:36:58.110Z,13.53
2018-02-12T05:39:24.893Z,12.80
2018-02-12T05:41:51.664Z,13.67
2018-02-12T05:44:18.401Z,10.13
2018-02-12T05:46:45.205Z,12.73
2018-02-12T05:49:11.945Z,14.73
2018-02-12T05:51:38.703Z,18.27
2018-02-12T05:54:05.457Z,18.20
2018-02-12T05:56:32.235Z,18.57
2018-02-12T05:58:59.122Z,16.57
2018-02-12T06:01:25.917Z,20.00
2018-02-12T06:03:52.693Z,28.97
2018-02-12T06:06:19.542Z,20.83
2018-02-12T06:08:46.329Z,25.17
2018-02-12T06:11:13.085Z,28.87
2018-02-12T06:13:39.874Z,25.47
2018-02-12T06:16:06.642Z,29.67
2018-02-12T06:18:33.392Z,28.67
2018-02-12T06:21:00.188Z,23.60
2018-02-12T06:23:26.951Z,25.03
2018-02-12T06:25:53.698Z,26.70
2018-02-12T06:28:20.934Z,24.97
2018-02-12T06:30:47.697Z,35.13
2018-02-12T06:33:14.437Z,26.90
2018-02-12T06:35:41.199Z,30.53
2018-02-12T06:38:07.995Z,30.00
2018-02-12T06:40:34.753Z,28.10
2018-02-12T06:43:01.485Z,33.93
2018-02-12T06:45:28.240Z,21.00
2018-02-12T06:47:55.197Z,22.33
2018-02-12T06:50:21.949Z,21.87
2018-02-12T06:52:48.703Z,22.57
2018-02-12T06:55:15.570Z,20.43
2018-02-12T06:57:42.318Z,20.60
2018-02-12T07:00:09.097Z,17.93
2018-02-12T07:02:35.865Z,17.07
2018-02-12T07:05:02.617Z,17.33
2018-02-12T07:07:29.372Z,16.33
2018-02-12T07:09:56.118Z,15.73
2018-02-12T07:12:23.478Z,21.47
2018-02-12T07:14:50.327Z,16.87
2018-02-12T07:17:17.075Z,19.27
2018-02-12T07:19:43.855Z,17.13
2018-02-12T07:22:10.618Z,25.40
2018-02-12T07:24:37.980Z,16.63
2018-02-12T07:27:04.825Z,20.90
2018-02-12T07:29:31.574Z,18.70
2018-02-12T07:31:58.326Z,12.03
2018-02-12T07:34:25.102Z,15.73
2018-02-12T07:36:51.880Z,17.23
2018-02-12T07:39:18.629Z,16.87
2018-02-12T07:41:45.383Z,19.63
2018-02-12T07:44:12.256Z,17.33
2018-02-12T07:46:39.186Z,17.70
2018-02-12T07:49:05.990Z,17.73
2018-02-12T07:51:32.822Z,19.13
2018-02-12T07:53:59.566Z,17.77
2018-02-12T07:56:26.316Z,17.57
2018-02-12T07:58:53.146Z,20.50
2018-02-12T08:01:20.293Z,18.90
2018-02-12T08:03:47.052Z,21.13
2018-02-12T08:06:13.822Z,20.67
2018-02-12T08:08:40.570Z,14.07
2018-02-12T08:11:07.353Z,19.97
2018-02-12T08:13:34.313Z,19.67
2018-02-12T08:16:01.114Z,30.23
2018-02-12T08:18:27.983Z,18.73
2018-02-12T08:20:54.726Z,23.57
2018-02-12T08:23:21.467Z,14.07
2018-02-12T08:25:48.226Z,16.70
2018-02-12T08:28:14.998Z,12.80
2018-02-12T08:30:41.757Z,9.73
2018-02-12T08:33:08.502Z,7.83
2018-02-12T08:35:35.256Z,9.93
2018-02-12T08:38:03.988Z,7.03
2018-02-12T08:40:30.745Z,9.67
2018-02-12T08:42:57.482Z,5.70
2018-02-12T08:45:24.380Z,8.97
2018-02-12T08:47:51.280Z,8.07
2018-02-12T08:50:18.939Z,8.53
2018-02-12T08:52:45.932Z,5.87
2018-02-12T08:55:12.726Z,8.57
2018-02-12T08:57:39.453Z,11.90
2018-02-12T09:00:06.207Z,7.27
2018-02-12T09:02:32.966Z,11.93
2018-02-12T09:05:00.664Z,7.30
2018-02-12T09:07:27.438Z,8.03
2018-02-12T09:09:54.158Z,11.73
2018-02-12T09:12:20.910Z,7.07
2018-02-12T09:14:47.661Z,6.93
2018-02-12T09:17:14.717Z,5.83
2018-02-12T09:19:42.095Z,7.77
2018-02-12T09:22:09.016Z,8.50
2018-02-12T09:24:36.339Z,7.10
2018-02-12T09:27:03.093Z,7.53
2018-02-12T09:29:29.866Z,7.63
2018-02-12T09:31:56.810Z,10.73
2018-02-12T09:34:23.585Z,9.77
2018-02-12T09:36:50.333Z,16.97
2018-02-12T09:39:17.231Z,8.20
2018-02-12T09:41:43.982Z,11.67
2018-02-12T09:44:11.517Z,12.03
2018-02-12T09:46:38.333Z,13.77
2018-02-12T09:49:05.866Z,11.67
2018-02-12T09:51:32.630Z,9.87
2018-02-12T09:53:59.509Z,8.63
2018-02-12T09:56:26.370Z,9.90
2018-02-12T09:58:53.179Z,8.13
2018-02-12T10:01:19.972Z,9.83
2018-02-12T10:03:46.705Z,5.57
2018-02-12T10:06:17.006Z,12.47
2018-02-12T10:08:43.745Z,8.77
2018-02-12T10:11:12.310Z,8.87
2018-02-12T10:13:39.049Z,7.90
2018-02-12T10:16:05.995Z,6.83
2018-02-12T10:18:32.729Z,8.50
2018-02-12T10:20:59.518Z,7.53
2018-02-12T10:23:26.288Z,6.83
2018-02-12T10:25:53.202Z,8.37
2018-02-12T10:28:19.954Z,6.03
2018-02-12T10:30:46.704Z,8.97
2018-02-12T10:33:13.453Z,6.67
2018-02-12T10:35:40.211Z,9.90
2018-02-12T10:38:06.981Z,10.83
2018-02-12T10:40:33.720Z,5.67
2018-02-12T10:43:00.470Z,3.63
2018-02-12T10:45:27.393Z,4.33
2018-02-12T10:47:54.139Z,7.50
2018-02-12T10:50:20.917Z,4.33
2018-02-12T10:52:47.710Z,5.07
2018-02-12T10:55:14.512Z,18.43
2018-02-12T10:57:41.444Z,3.93
2018-02-12T11:00:08.275Z,6.17
2018-02-12T11:02:35.023Z,5.53
2018-02-12T11:05:01.814Z,5.43
2018-02-12T11:07:28.723Z,6.30
2018-02-12T11:09:55.530Z,9.73
2018-02-12T11:12:22.278Z,7.60
2018-02-12T11:14:49.030Z,8.67
2018-02-12T11:17:16.041Z,7.70
2018-02-12T11:19:42.791Z,8.03
2018-02-12T11:22:09.588Z,10.27
2018-02-12T11:24:36.412Z,9.17
2018-02-12T11:27:03.242Z,6.77
2018-02-12T11:29:30.027Z,9.37
2018-02-12T11:31:56.772Z,9.70
2018-02-12T11:34:23.689Z,10.33
2018-02-12T11:36:50.433Z,15.17
2018-02-12T11:39:17.203Z,10.00
2018-02-12T11:41:44.102Z,4.47
2018-02-12T11:44:10.890Z,7.30
2018-02-12T11:46:38.017Z,4.83
2018-02-12T11:49:05.602Z,7.27
2018-02-12T11:51:32.485Z,5.93
2018-02-12T11:53:59.235Z,6.80
2018-02-12T11:56:26.203Z,8.07
2018-02-12T11:58:53.413Z,20.43
2018-02-12T12:01:20.266Z,16.90
2018-02-12T12:03:47.028Z,23.50
2018-02-12T12:06:13.811Z,8.73
2018-02-12T12:08:40.643Z,6.17
2018-02-12T12:11:07.490Z,11.33
2018-02-12T12:13:34.542Z,9.07
2018-02-12T12:16:01.494Z,11.17
2018-02-12T12:18:28.391Z,9.47
2018-02-12T12:20:55.464Z,11.03
2018-02-12T12:23:22.279Z,8.63
2018-02-12T12:25:49.144Z,5.57
2018-02-12T12:28:16.073Z,14.77
2018-02-12T12:30:42.934Z,19.60
2018-02-12T12:33:09.766Z,9.43
2018-02-12T12:35:36.635Z,6.50
2018-02-12T12:38:03.827Z,5.23
2018-02-12T12:40:32.408Z,6.73
2018-02-12T12:42:59.204Z,3.97
2018-02-12T12:45:26.053Z,7.40
2018-02-12T12:47:52.972Z,3.83
2018-02-12T12:50:29.657Z,5.77
2018-02-12T12:52:56.410Z,6.37
2018-02-12T12:55:23.227Z,21.57
2018-02-12T12:57:51.510Z,4.27
2018-02-12T13:00:18.253Z,8.93
2018-02-12T13:02:44.997Z,7.10
2018-02-12T13:05:11.775Z,5.47
2018-02-12T13:07:38.548Z,5.67
2018-02-12T13:10:05.315Z,8.90
2018-02-12T13:12:32.163Z,8.93
2018-02-12T13:14:58.949Z,5.10
2018-02-12T13:17:25.749Z,30.60
2018-02-12T13:19:52.558Z,5.90
2018-02-12T13:22:19.386Z,7.80
2018-02-12T13:24:46.185Z,6.43
2018-02-12T13:27:12.922Z,7.20
2018-02-12T13:29:40.463Z,8.07
2018-02-12T13:32:07.540Z,9.37
2018-02-12T13:34:34.281Z,32.07
2018-02-12T13:37:01.030Z,27.07
2018-02-12T13:39:27.785Z,8.90
2018-02-12T13:41:54.575Z,9.57
2018-02-12T13:44:21.387Z,3.67
2018-02-12T13:46:48.306Z,6.07
2018-02-12T13:49:15.244Z,3.33
2018-02-12T13:51:42.017Z,8.67
2018-02-12T13:54:08.794Z,3.97
2018-02-12T13:56:35.545Z,6.73
2018-02-12T13:59:02.305Z,7.27
2018-02-12T14:01:29.504Z,8.57
2018-02-12T14:03:56.242Z,3.73
2018-02-12T14:06:23.003Z,11.20
2018-02-12T14:08:49.749Z,21.57
2018-02-12T14:11:16.490Z,8.37
2018-02-12T14:13:43.246Z,3.77
2018-02-12T14:16:10.104Z,6.53
2018-02-12T14:18:36.894Z,5.30
2018-02-12T14:21:03.679Z,7.70
2018-02-12T14:23:30.462Z,5.60
2018-02-12T14:25:57.294Z,3.87
2018-02-12T14:28:24.101Z,5.93
2018-02-12T14:30:51.482Z,7.20
2018-02-12T14:33:18.420Z,4.90
2018-02-12T14:35:45.321Z,7.87
2018-02-12T14:40:45.085Z,11.30
2018-02-12T14:43:11.882Z,26.87
2018-02-12T14:45:38.897Z,6.40
2018-02-12T14:48:05.645Z,6.77
2018-02-12T14:50:32.407Z,9.23
2018-02-12T14:52:59.173Z,7.83
2018-02-12T14:55:25.946Z,5.97
2018-02-12T14:57:52.697Z,10.03
2018-02-12T15:00:19.474Z,5.93
2018-02-12T15:02:46.245Z,8.37
2018-02-12T15:05:12.997Z,6.87
2018-02-12T15:07:39.725Z,5.63
2018-02-12T15:10:06.491Z,7.73
2018-02-12T15:12:33.327Z,5.93
2018-02-12T15:15:00.082Z,4.87
2018-02-12T15:17:26.853Z,6.00
2018-02-12T15:19:53.635Z,3.40
2018-02-12T15:22:20.700Z,10.03
2018-02-12T15:24:47.441Z,8.20
2018-02-12T15:27:14.346Z,7.77
2018-02-12T15:29:41.113Z,5.13
2018-02-12T15:32:07.898Z,6.77
2018-02-12T15:34:34.634Z,7.50
2018-02-12T15:37:01.413Z,9.43
2018-02-12T15:39:28.167Z,7.17
2018-02-12T15:41:54.914Z,6.33
2018-02-12T15:44:21.650Z,8.50
2018-02-12T15:46:48.380Z,7.93
2018-02-12T15:49:15.554Z,15.77
2018-02-12T15:51:42.337Z,5.33
2018-02-12T15:54:09.093Z,10.80
2018-02-12T15:56:36.136Z,5.83
2018-02-12T15:59:02.996Z,9.00
2018-02-12T16:01:29.933Z,10.57
2018-02-12T16:03:56.695Z,11.23
2018-02-12T16:06:23.457Z,17.37
2018-02-12T16:08:50.257Z,44.50
2018-02-12T16:11:17.022Z,44.60
2018-02-12T16:13:43.778Z,16.33
2018-02-12T16:16:10.757Z,12.83
2018-02-12T16:18:37.526Z,11.07
2018-02-12T16:21:05.747Z,11.43
2018-02-12T16:23:32.485Z,18.57
2018-02-12T16:25:59.250Z,14.20
2018-02-12T16:28:26.314Z,17.73
2018-02-12T16:30:53.071Z,16.20
2018-02-12T16:33:19.827Z,27.90
2018-02-12T16:35:46.722Z,21.77
2018-02-12T16:38:13.557Z,24.03
2018-02-12T16:40:40.847Z,23.50
2018-02-12T16:43:07.623Z,18.40
2018-02-12T16:45:34.397Z,14.37
2018-02-12T16:48:01.169Z,17.80
2018-02-12T16:50:28.030Z,26.20
2018-02-12T16:52:54.798Z,26.67
2018-02-12T16:55:21.558Z,31.93
2018-02-12T16:57:48.382Z,24.83
2018-02-12T17:00:15.295Z,16.67
2018-02-12T17:02:43.540Z,35.13
2018-02-12T17:05:10.647Z,32.90
2018-02-12T17:07:37.710Z,29.50
2018-02-12T17:10:04.472Z,29.63
2018-02-12T17:12:31.289Z,35.83
2018-02-12T17:14:58.054Z,29.67
2018-02-12T17:17:26.151Z,39.67
2018-02-12T17:19:54.131Z,30.80
2018-02-12T17:22:20.934Z,26.80
2018-02-12T17:24:47.695Z,30.90
2018-02-12T17:27:15.429Z,28.57
2018-02-12T17:29:42.250Z,38.07
2018-02-12T17:32:08.998Z,36.50
2018-02-12T17:34:35.786Z,45.53
2018-02-12T17:37:02.573Z,45.93
2018-02-12T17:39:29.377Z,50.43
2018-02-12T17:41:56.284Z,41.60
2018-02-12T17:44:23.183Z,35.87
2018-02-12T17:46:50.052Z,43.57
2018-02-12T17:49:16.953Z,42.57
2018-02-12T17:51:43.730Z,41.37
2018-02-12T17:54:10.503Z,38.50
2018-02-12T17:56:37.282Z,34.17
2018-02-12T17:59:04.939Z,38.87
2018-02-12T18:01:31.736Z,32.57
2018-02-12T18:03:58.520Z,34.60
2018-02-12T18:06:25.353Z,36.43
2018-02-12T18:08:52.093Z,37.03
2018-02-12T18:11:18.874Z,31.30
2018-02-12T18:13:45.639Z,37.00
2018-02-12T18:16:13.315Z,31.20
2018-02-12T18:18:40.082Z,31.57
2018-02-12T18:21:06.912Z,37.83
2018-02-12T18:23:33.665Z,43.70
2018-02-12T18:26:00.422Z,36.40
2018-02-12T18:28:27.214Z,44.80
2018-02-12T18:30:54.121Z,43.20
2018-02-12T18:33:20.900Z,50.73
2018-02-12T18:35:48.354Z,44.07
2018-02-12T18:38:15.151Z,47.23
2018-02-12T18:40:41.905Z,54.70
2018-02-12T18:43:08.692Z,54.00
2018-02-12T18:45:35.637Z,54.00
2018-02-12T18:48:02.642Z,48.90
2018-02-12T18:50:29.405Z,49.47
2018-02-12T18:52:56.188Z,49.33
2018-02-12T18:55:23.027Z,42.57
2018-02-12T18:57:49.856Z,54.70
2018-02-12T19:00:16.810Z,60.53
2018-02-12T19:02:43.704Z,74.40
2018-02-12T19:05:10.481Z,63.70
2018-02-12T19:07:38.429Z,62.43
2018-02-12T19:10:05.357Z,68.60
2018-02-12T19:12:32.409Z,64.37
2018-02-12T19:14:59.364Z,63.80
2018-02-12T19:17:26.144Z,71.77
2018-02-12T19:19:53.102Z,71.77
2018-02-12T19:22:20.948Z,77.17
2018-02-12T19:24:47.858Z,66.63
2018-02-12T19:27:14.655Z,78.73
2018-02-12T19:29:41.418Z,58.63
2018-02-12T19:32:08.402Z,56.00
2018-02-12T19:34:35.972Z,60.60
2018-02-12T19:37:03.020Z,54.97
2018-02-12T19:39:29.786Z,53.80
2018-02-12T19:41:57.432Z,58.17
2018-02-12T19:44:24.210Z,57.93
2018-02-12T19:46:50.982Z,61.87
2018-02-12T19:49:18.777Z,67.80
2018-02-12T19:51:45.686Z,64.77
2018-02-12T19:54:12.462Z,75.20
2018-02-12T19:56:39.261Z,80.50
2018-02-12T19:59:06.033Z,73.20
2018-02-12T20:01:33.166Z,74.57
2018-02-12T20:04:01.805Z,74.20
2018-02-12T20:16:26.261Z,74.93
2018-02-12T20:18:55.871Z,96.17
2018-02-12T20:21:30.493Z,81.27
2018-02-12T20:23:57.411Z,62.57
2018-02-12T20:26:24.965Z,71.60
2018-02-12T20:28:51.723Z,71.03
2018-02-12T20:31:19.294Z,56.00
2018-02-12T20:33:46.103Z,50.63
2018-02-12T20:36:12.948Z,37.43
2018-02-12T20:38:39.720Z,34.13
2018-02-12T20:41:07.165Z,31.03
2018-02-12T20:43:34.100Z,46.33
2018-02-12T20:46:00.931Z,200.80
2018-02-12T20:48:27.721Z,62.87
2018-02-12T20:50:54.478Z,86.60
2018-02-12T20:53:21.297Z,59.47
2018-02-12T20:55:48.076Z,50.97
2018-02-12T20:58:14.841Z,52.83
2018-02-12T21:00:41.668Z,83.73
2018-02-12T21:03:08.450Z,30.17
2018-02-12T21:05:35.333Z,33.90
2018-02-12T21:08:02.820Z,29.87
2018-02-12T21:10:29.621Z,34.00
2018-02-12T21:13:00.437Z,31.47
2018-02-12T21:15:27.237Z,42.20
2018-02-12T21:17:56.259Z,36.07
2018-02-12T21:20:23.013Z,39.77
2018-02-12T21:22:49.767Z,41.83
2018-02-12T21:25:16.771Z,43.30
2018-02-12T21:27:43.537Z,41.03
2018-02-12T21:30:10.322Z,28.20
2018-02-12T21:32:37.085Z,32.00
2018-02-12T21:35:03.984Z,39.73
2018-02-12T21:37:30.926Z,39.13
2018-02-12T21:39:57.760Z,38.30
2018-02-12T21:42:24.546Z,42.27
2018-02-12T21:44:52.168Z,32.90
2018-02-12T21:47:20.766Z,32.40
2018-02-12T21:49:47.606Z,31.73
2018-02-12T21:52:15.702Z,35.97
2018-02-12T21:54:42.561Z,35.67
2018-02-12T21:57:09.321Z,35.17
2018-02-12T21:59:36.107Z,38.93
2018-02-12T22:02:02.873Z,35.13
2018-02-12T22:04:29.731Z,45.07
2018-02-12T22:06:56.494Z,39.40
2018-02-12T22:09:23.280Z,34.20
2018-02-12T22:11:50.031Z,34.63
2018-02-12T22:14:16.793Z,33.57
2018-02-12T22:16:43.538Z,30.27
2018-02-12T22:19:10.292Z,33.67
2018-02-12T22:21:37.187Z,32.07
2018-02-12T22:24:04.020Z,34.27
2018-02-12T22:26:31.616Z,30.33
2018-02-12T22:28:58.422Z,27.17
2018-02-12T22:31:25.176Z,30.40
2018-02-12T22:33:59.007Z,37.73
2018-02-12T22:36:25.851Z,27.63
2018-02-12T22:38:52.653Z,35.17
2018-02-12T22:41:19.616Z,27.00
2018-02-12T22:43:54.187Z,34.27
2018-02-12T22:46:21.995Z,25.47
2018-02-12T22:48:48.954Z,29.63
2018-02-12T22:51:20.031Z,37.67
2018-02-12T22:53:46.961Z,35.83
2018-02-12T22:56:13.766Z,30.13
2018-02-12T22:58:40.511Z,35.77
2018-02-12T23:01:07.300Z,28.10
2018-02-12T23:03:34.071Z,26.77
2018-02-12T23:06:01.620Z,40.80
2018-02-12T23:08:30.025Z,28.53
2018-02-12T23:10:57.018Z,29.57
2018-02-12T23:13:24.647Z,36.60
2018-02-12T23:15:51.410Z,35.90
2018-02-12T23:18:18.171Z,28.67
2018-02-12T23:20:44.922Z,31.13
2018-02-12T23:23:11.690Z,30.67
2018-02-12T23:25:38.441Z,28.43
2018-02-12T23:28:05.223Z,25.87
2018-02-12T23:30:32.039Z,23.87
2018-02-12T23:32:59.061Z,25.70
2018-02-12T23:35:25.849Z,20.10
2018-02-12T23:37:53.518Z,28.17
2018-02-12T23:40:20.569Z,26.33
2018-02-12T23:42:47.461Z,26.07
2018-02-12T23:45:14.214Z,31.50
2018-02-12T23:47:40.961Z,33.43
2018-02-12T23:50:07.711Z,31.33
2018-02-12T23:52:34.783Z,28.60
2018-02-12T23:55:01.591Z,28.17
2018-02-12T23:57:28.321Z,29.57
2018-02-12T23:59:55.077Z,28.23
